الصفحة الرئيسية
METAR-TAF:

METAR-TAF

مطار :

مطار قويلين يانغ جيانغ الدولي

Guilin, جمهورية الصين الشعبية

دائرة عرض: 25-20N, خط طول: 110-18E, ارتفاع: 166 متر

مراقبة الطقس الحالي

تاريخ ووقت الإصدار 1ساعة و 9 دقيقة قبل الساعة 00:00UTC
ريح 2 عقدةمن اتجاهات متغيرة
درجة الحرارة 25°درجة مئوية
الرطوبة 94%
ضغط 1006 hPa
الرؤية: 5000 متر
غيوم قليلة على ارتفاع 1300 قدم
ملبد بالغيوم على ارتفاع 4300 قدم
غشاء

METAR: ZGKL 240000Z VRB01MPS 5000 BR FEW013 OVC043 25/24 Q1006 NOSIG

زمن: 09:09 (01:09 UTC)

توقعات

تاريخ ووقت الإصدار 5ساعات و 52 دقيقة قبل الساعة 19:17UTC
التوقعات صالحة من24 الساعة 00 UTC إلى 24 الساعة 24 UTC
ريح 6 عقدة من الجنوب
الرؤية 10 كم أو أكثر
غيوم متفرقة على ارتفاع 3000 قدم
غيوم مفككة على ارتفاع 5000 قدم
مؤقت
من 24 الساعة 08 UTC إلى 24 الساعة 12 UTC
الرؤية: 2000 متر
غيوم قليلة على ارتفاع 800 قدم
غيوم متفرقة على ارتفاع 3000 قدم
غيوم قليلة على ارتفاع 4000 قدم, مزنة ركامية.
غيوم مفككة على ارتفاع 4000 قدم
زخات من المطر

TAF: ZGKL 231917Z 2400/2424 18003MPS 9999 SCT030 BKN050 TX32/2408Z TN24/2421Z TEMPO 2408/2412 2000 SHRA FEW008 SCT030 FEW040CB BKN040

أرصاد الطقس والتوقعات من أكثر من 4000 مطار (تقارير الطقس للمطار METAR والتنبؤ بالطقس بالمطارTAF).

المحطات المتاحة هي النقط الصفراء والحمراء على الخريطة.

حرك المؤشر فوق النقطة لمعرفة اسم المحطة.

ثم انقر لمعرفة أرصاد وتوقعات الطقس.

لتغيير الخارطة: اضغط على الأزرار الخضراء مع رمز الصليب الأسود للتكبير. على الزر الأخضر مع شرطة للتصغير، أو على الأسهم الخضراء للخرائط المجاورة.


METAR-TAF: